Terminal Aerodrome Forecast
Issued by NWS

Home | Current Version | Previous Version | Text Only | Print | Product List | Glossary On
Versions: 1 2 3 4 5 6 7 8 9 10 11 12 13 14 15 16 17 18
000
FTUS43 KDVN 272300
TAFBRL
TAF
KBRL 272320Z 2800/2824 32014G25KT P6SM SCT050
     FM280200 32009KT P6SM SKC
     FM281500 35010KT P6SM SCT050=

USA.gov is the U.S. government's official web portal to all federal, state and local government web resources and services.